Date,TemperatureHighF,TemperatureAvgF,TemperatureLowF,DewpointHighF,DewpointAvgF,DewpointLowF,HumidityHigh,HumidityAvg,HumidityLow,PressureMaxIn,PressureMinIn,WindSpeedMaxMPH,WindSpeedAvgMPH,GustSpeedMaxMPH,PrecipitationSumIn
2013-1-1,56.3,42.6,34.8,43.0,37.3,33.0,98,83,54,30.27,30.18,5,1,11,0.01
2013-1-2,63.8,44.7,33.0,43.0,34.2,28.0,94,70,28,30.24,30.12,2,1,7,0.00
2013-1-3,65.6,46.0,36.1,44.0,35.5,29.0,87,69,40,30.25,30.15,5,0,6,0.00
2013-1-4,62.2,47.6,39.2,43.0,35.1,27.0,93,64,34,30.28,30.17,8,1,12,0.00
2013-1-5,50.4,45.6,41.3,48.0,44.3,39.0,99,95,86,30.26,30.08,8,1,14,0.41
2013-1-6,48.2,43.9,39.8,47.0,43.3,39.0,100,98,90,30.18,30.05,2,0,6,0.10
2013-1-7,60.5,46.9,39.8,52.0,44.9,40.0,100,93,67,30.26,30.14,6,0,7,0.01
2013-1-8,66.3,51.4,44.2,54.0,47.3,43.0,99,87,59,30.20,30.09,5,0,7,0.01
2013-1-9,55.9,46.1,39.1,50.0,43.6,38.0,98,91,79,30.12,30.00,3,0,8,0.04
2013-1-10,50.4,41.5,37.1,42.0,37.7,36.0,99,87,60,30.20,30.08,5,0,13,0.04
2013-1-11,53.7,42.4,35.6,40.0,37.0,33.0,95,82,55,30.27,30.14,3,0,9,0.01
2013-1-12,53.1,40.2,32.3,39.0,33.5,27.0,97,80,39,30.25,30.13,4,0,10,0.01
2013-1-13,53.1,38.5,28.5,33.0,26.2,19.0,93,65,31,30.27,30.16,4,0,8,0.00
2013-1-14,54.8,41.7,34.4,25.0,17.9,11.0,66,40,22,30.40,30.22,4,0,8,0.00
2013-1-15,54.9,40.7,30.8,33.0,28.6,23.0,83,64,40,30.48,30.39,8,1,11,0.00
2013-1-16,63.6,45.3,32.5,38.0,32.7,28.0,89,66,28,30.42,30.23,6,1,9,0.00
2013-1-17,73.0,53.6,40.1,45.0,34.9,30.0,80,53,22,30.24,30.11,6,1,8,0.00
2013-1-18,70.3,54.8,45.5,45.0,32.4,23.0,67,46,17,30.18,30.09,9,1,11,0.00
2013-1-19,71.3,53.4,44.1,44.0,32.9,27.0,65,49,20,30.20,30.12,9,1,11,0.00
2013-1-20,73.5,55.4,44.2,44.0,34.1,27.0,67,47,23,30.19,30.07,7,1,7,0.00
2013-1-21,72.6,55.4,44.5,44.0,30.2,23.0,61,40,18,30.14,30.06,7,1,9,0.00
2013-1-22,67.4,55.1,45.6,43.0,31.7,22.0,57,42,25,30.09,29.99,11,1,13,0.00
2013-1-23,55.1,51.1,48.2,50.0,40.9,29.0,98,71,39,30.06,29.95,4,0,5,0.09
2013-1-24,53.7,50.8,48.0,54.0,50.6,48.0,100,99,97,30.17,30.04,2,0,3,0.21
2013-1-25,70.2,57.3,50.5,61.0,55.0,50.0,100,93,67,30.17,30.02,2,0,7,0.03
2013-1-26,56.8,49.1,43.2,52.0,45.2,41.0,100,88,59,30.08,30.00,7,0,10,0.01
2013-1-27,59.1,46.8,41.3,41.0,39.4,37.0,94,78,45,30.16,30.07,4,0,7,0.01
2013-1-28,59.7,46.5,39.0,44.0,40.8,37.0,94,82,53,30.29,30.15,5,0,10,0.00
2013-1-29,62.1,48.9,41.9,47.0,42.8,40.0,92,80,57,30.34,30.23,6,0,9,0.00
2013-1-30,65.3,53.7,42.9,48.0,43.1,39.0,87,69,51,30.34,30.24,8,1,11,0.00
2013-1-31,69.1,53.0,42.0,49.0,43.2,36.0,89,72,43,30.26,30.15,7,1,10,0.00
2013-2-1,70.5,53.1,43.3,50.0,44.3,41.0,90,75,35,30.21,30.09,8,1,12,0.00
2013-2-2,65.8,50.3,43.3,53.0,45.5,40.0,97,84,52,30.26,30.19,9,0,10,0.00
2013-2-3,62.7,48.5,41.1,49.0,44.0,40.0,98,86,58,30.24,30.11,7,0,9,0.01
2013-2-4,67.7,50.4,38.6,51.0,44.6,38.0,98,83,51,30.17,30.04,5,0,9,0.01
2013-2-5,56.7,47.7,42.3,46.0,43.9,41.0,97,87,66,30.14,30.05,4,0,8,0.00
2013-2-6,61.4,46.5,36.5,48.0,41.5,36.0,98,84,52,30.19,30.10,9,1,11,0.01
2013-2-7,56.5,41.9,35.1,49.0,39.1,34.0,98,91,55,30.18,30.02,4,0,6,0.11
2013-2-8,54.4,41.9,35.5,44.0,38.7,33.0,99,90,60,30.02,29.95,3,0,7,0.03
2013-2-9,57.2,44.1,34.8,42.0,35.2,30.0,94,72,36,30.10,29.99,7,1,10,0.00
2013-2-10,63.9,44.9,32.6,39.0,34.3,30.0,92,71,31,30.12,30.01,2,0,6,0.00
2013-2-11,64.7,49.3,38.1,36.0,31.6,23.0,88,56,23,30.23,30.06,5,1,8,0.00
2013-2-12,62.2,46.7,36.0,43.0,38.0,32.0,94,74,44,30.35,30.24,7,1,9,0.00
2013-2-13,70.5,50.8,38.9,44.0,38.8,35.0,94,68,28,30.33,30.20,3,0,7,0.00
2013-2-14,74.7,56.7,41.8,43.0,40.4,38.0,90,58,31,30.21,30.12,5,0,6,0.00
2013-2-15,79.3,59.4,45.4,49.0,40.3,37.0,76,53,24,30.23,30.16,5,0,9,0.00
2013-2-16,73.9,57.9,47.5,50.0,39.6,32.0,85,54,24,30.20,30.03,7,1,10,0.00
2013-2-17,61.6,49.3,40.9,49.0,43.8,40.0,97,82,59,30.04,29.96,8,1,11,0.00
2013-2-18,51.1,43.6,38.5,44.0,40.1,38.0,98,88,68,30.05,29.99,1,0,6,0.01
2013-2-19,48.9,40.5,35.1,46.0,39.4,35.0,98,96,84,30.00,29.77,9,1,15,0.38
2013-2-20,59.1,44.2,34.5,42.0,38.0,34.0,98,81,50,30.07,29.84,7,1,13,0.01
2013-2-21,61.1,47.2,37.8,41.0,37.3,32.0,93,72,35,30.18,30.04,7,1,11,0.00
2013-2-22,68.3,48.3,35.3,42.0,37.4,33.0,93,71,33,30.25,30.17,5,0,9,0.00
2013-2-23,59.3,48.3,42.2,45.0,40.2,33.0,97,75,47,30.24,30.13,6,1,10,0.03
2013-2-24,64.7,50.1,39.6,35.0,28.4,23.0,77,47,23,30.24,30.14,8,1,12,0.00
2013-2-25,67.9,48.5,36.0,48.0,39.1,30.0,94,72,40,30.27,30.15,6,1,10,0.00
2013-2-26,71.6,52.9,36.3,39.0,30.9,21.0,95,51,17,30.20,30.11,5,1,6,0.00
2013-2-27,73.0,55.8,43.1,42.0,35.4,30.0,75,49,24,30.35,30.20,8,1,9,0.00
2013-2-28,74.8,55.6,44.0,53.0,47.2,41.0,93,76,47,30.43,30.35,2,0,7,0.00
2013-3-1,78.9,59.5,46.5,55.0,49.6,45.0,98,74,36,30.41,30.20,7,1,11,0.01
2013-3-2,71.2,58.2,48.7,53.0,46.7,42.0,94,68,40,30.22,30.06,9,1,11,0.00
2013-3-3,66.0,53.3,45.2,50.0,46.4,43.0,97,80,47,30.10,30.02,6,0,7,0.00
2013-3-4,62.7,49.5,42.2,50.0,44.4,41.0,94,84,60,30.14,30.04,10,1,11,0.00
2013-3-5,50.5,44.9,41.3,44.0,41.6,40.0,98,89,71,30.09,29.93,19,5,24,0.47
2013-3-6,54.8,46.4,37.8,47.0,42.4,37.0,99,87,59,30.09,29.93,16,2,23,0.60
2013-3-7,52.2,43.3,35.3,44.0,39.9,35.0,99,89,62,30.01,29.87,10,1,12,0.38
2013-3-8,56.4,46.9,40.9,49.0,43.0,41.0,99,87,65,30.09,29.83,6,1,13,0.06
2013-3-9,66.4,52.3,43.5,46.0,41.4,37.0,92,70,34,30.30,30.09,7,1,11,0.00
2013-3-10,70.5,53.1,39.1,48.0,41.8,34.0,93,69,27,30.33,30.24,8,1,12,0.00
2013-3-11,77.3,57.2,42.9,46.0,41.1,35.0,82,59,28,30.25,30.10,6,1,9,0.00
2013-3-12,77.4,59.6,44.5,52.0,45.6,38.0,82,63,36,30.12,30.04,9,1,11,0.00
2013-3-13,83.6,64.1,50.3,56.0,48.9,40.0,85,63,24,30.12,30.04,7,1,10,0.00
2013-3-14,80.8,61.1,49.8,57.0,47.8,34.0,90,65,35,30.12,30.06,2,0,7,0.00
2013-3-15,77.8,57.9,44.9,53.0,44.9,37.0,87,64,33,30.09,30.02,4,0,8,0.00
2013-3-16,78.5,56.7,42.3,54.0,43.3,32.0,98,68,23,30.08,30.01,8,0,14,0.00
2013-3-17,76.0,55.5,43.4,46.0,40.5,31.0,89,63,20,30.12,30.02,5,1,10,0.00
2013-3-18,67.2,51.6,40.0,53.0,43.9,38.0,93,77,52,30.12,30.03,5,0,7,0.00
2013-3-19,73.3,54.0,45.1,50.0,42.8,33.0,98,69,36,30.14,30.06,7,1,14,0.09
2013-3-20,62.5,54.5,49.5,55.0,51.7,49.0,100,91,70,30.12,30.07,4,0,7,0.02
2013-3-21,67.5,53.2,40.6,49.0,43.3,39.0,95,72,42,30.12,29.99,5,0,8,0.00
2013-3-22,70.8,55.6,41.6,40.0,30.6,18.0,93,45,14,30.09,30.00,6,1,12,0.00
2013-3-23,73.7,56.8,45.1,43.0,31.8,23.0,74,42,15,30.11,30.02,4,0,6,0.00
2013-3-24,72.7,55.1,41.0,51.0,42.6,34.0,87,65,42,30.08,29.95,8,1,12,0.00
2013-3-25,68.1,52.2,41.5,49.0,42.9,39.0,90,73,46,30.01,29.93,9,1,12,0.00
2013-3-26,70.0,54.7,43.0,52.0,46.2,41.0,94,75,48,30.00,29.91,7,1,11,0.00
2013-3-27,64.1,52.6,44.9,53.0,48.9,44.0,98,87,64,30.02,29.95,9,2,12,0.00
2013-3-28,66.8,55.6,50.5,57.0,52.4,49.0,100,90,66,30.08,30.01,10,2,12,0.04
2013-3-29,71.2,57.9,45.4,57.0,51.0,45.0,100,80,49,30.07,30.01,13,2,15,0.00
2013-3-30,64.6,54.2,48.5,53.0,50.5,48.0,99,88,57,30.08,29.99,11,2,15,0.25
2013-3-31,60.2,54.2,51.2,55.0,51.6,50.0,99,91,74,30.07,30.00,12,4,19,0.07
2013-4-1,62.7,54.3,48.1,53.0,50.7,47.0,100,89,62,30.15,30.05,8,2,12,0.32
2013-4-2,73.4,54.8,42.9,56.0,49.5,42.0,100,85,54,30.18,30.07,5,0,9,0.01
2013-4-3,74.7,56.4,43.9,55.0,47.9,37.0,99,78,26,30.12,29.98,9,2,13,0.01
2013-4-4,56.1,51.2,47.4,56.0,50.9,47.0,100,99,95,30.13,30.01,6,2,10,0.31
2013-4-5,68.1,56.6,49.2,55.0,51.3,48.0,100,84,54,30.18,30.11,5,0,10,0.00
2013-4-6,68.4,54.4,47.8,56.0,50.3,47.0,99,87,54,30.20,30.13,4,0,10,0.01
2013-4-7,70.3,54.7,46.0,55.0,48.9,46.0,99,83,48,30.17,29.88,4,0,8,0.08
2013-4-8,65.3,51.3,43.3,49.0,40.8,35.0,97,71,34,30.01,29.81,11,2,23,0.04
2013-4-9,73.0,60.7,43.6,42.0,37.4,33.0,91,45,24,30.08,30.01,6,1,13,0.00
2013-4-10,88.7,70.5,56.0,52.0,43.9,34.0,75,40,25,30.14,30.03,7,1,11,0.00
2013-4-11,72.4,57.9,44.7,51.0,46.2,42.0,91,68,38,30.04,29.84,5,0,11,0.00
2013-4-12,74.1,55.1,40.9,56.0,46.7,40.0,98,77,46,29.92,29.83,10,2,11,0.00
2013-4-13,73.0,53.4,42.9,54.0,43.7,39.0,95,72,41,29.91,29.85,7,1,12,0.01
2013-4-14,69.6,52.1,40.8,45.0,40.9,37.0,94,70,33,29.93,29.87,5,0,18,0.00
2013-4-15,57.2,48.1,41.4,47.0,40.0,36.0,97,75,52,29.97,29.86,7,1,22,0.02
2013-4-16,66.2,50.3,36.5,39.0,35.5,32.0,94,62,31,30.14,29.97,7,1,10,0.00
2013-4-17,70.0,56.4,47.4,36.0,32.0,29.0,55,42,22,30.25,30.14,5,1,14,0.00
2013-4-18,78.2,59.1,43.0,39.0,34.8,30.0,69,45,19,30.26,30.17,4,0,9,0.00
2013-4-19,82.5,62.1,47.4,52.0,43.6,37.0,73,54,26,30.23,30.06,8,2,13,0.00
2013-4-20,84.3,64.6,48.6,47.0,43.1,38.0,87,51,21,30.08,29.96,7,0,11,0.00
2013-4-21,90.8,69.0,49.6,49.0,41.5,37.0,76,42,16,30.00,29.90,4,0,8,0.00
2013-4-22,80.7,65.0,52.1,58.0,48.8,41.0,91,58,37,29.94,29.84,9,2,11,0.00
2013-4-23,71.9,57.1,46.6,55.0,48.2,32.0,96,75,35,29.93,29.83,10,3,12,0.00
2013-4-24,59.7,50.9,44.0,52.0,47.8,43.0,98,89,73,29.97,29.81,9,2,14,0.00
2013-4-25,70.4,55.9,45.1,54.0,49.0,44.0,99,80,54,30.12,29.97,8,1,12,0.01
2013-4-26,74.9,57.9,46.5,58.0,50.5,45.0,96,79,53,30.20,30.11,9,2,11,0.00
2013-4-27,80.3,60.1,42.9,58.0,49.2,42.0,97,71,39,30.20,30.05,9,2,11,0.01
2013-4-28,81.4,62.2,44.4,60.0,51.5,42.0,94,71,44,30.06,29.89,9,1,11,0.00
2013-4-29,94.8,72.1,54.4,52.0,48.6,43.0,77,49,20,29.89,29.75,5,1,9,0.00
2013-4-30,84.8,64.2,47.6,55.0,45.1,37.0,91,57,19,29.82,29.76,6,1,8,0.00
2013-5-1,77.5,60.9,44.5,56.0,46.0,26.0,94,61,26,30.07,29.82,7,2,12,0.00
2013-5-2,90.3,72.6,54.5,50.0,39.5,32.0,80,33,15,30.12,30.05,8,1,12,0.00
2013-5-3,91.1,71.1,55.1,47.0,36.7,30.0,49,31,15,30.06,29.77,8,1,11,0.00
2013-5-4,76.7,59.9,49.8,53.0,44.7,34.0,91,60,38,29.77,29.61,12,4,20,0.00
2013-5-5,60.1,55.0,51.0,51.0,48.8,47.0,89,80,64,29.80,29.62,21,8,29,0.00
2013-5-6,63.1,56.2,52.3,53.0,50.7,49.0,92,82,62,29.97,29.80,10,2,18,0.00
2013-5-7,69.5,59.0,51.6,53.0,50.2,48.0,92,75,48,30.04,29.95,10,1,14,0.00
2013-5-8,73.7,56.5,44.8,55.0,48.9,43.0,97,78,48,30.13,30.03,7,1,11,0.00
2013-5-9,81.5,59.9,47.8,58.0,50.7,46.0,95,75,43,30.16,30.06,8,0,13,0.00
2013-5-10,80.6,61.0,47.9,60.0,52.2,46.0,96,76,45,30.16,30.07,10,1,12,0.00
2013-5-11,88.7,67.6,50.1,60.0,53.6,48.0,94,66,32,30.12,30.02,8,1,12,0.00
2013-5-12,91.7,70.5,54.2,62.0,51.1,44.0,84,54,27,30.09,29.98,3,0,8,0.00
2013-5-13,88.7,65.8,50.0,60.0,48.8,40.0,79,57,36,30.05,29.94,5,0,11,0.00
2013-5-14,75.9,58.7,47.5,57.0,48.3,40.0,95,72,35,30.03,29.92,10,2,12,0.00
2013-5-15,68.8,51.6,44.8,49.0,45.7,43.0,94,82,43,30.05,30.01,6,1,11,0.00
2013-5-16,74.5,58.7,49.6,56.0,51.1,47.0,94,78,48,30.03,29.96,4,0,8,0.01
2013-5-17,73.4,57.3,47.2,48.0,45.2,38.0,94,69,28,30.07,29.97,5,1,9,0.00
2013-5-18,79.1,59.3,45.5,50.0,46.4,40.0,94,68,27,30.12,30.07,8,1,14,0.00
2013-5-19,85.5,65.1,45.5,49.0,44.2,37.0,94,53,22,30.10,29.95,6,1,9,0.00
2013-5-20,92.1,71.0,53.1,46.0,39.7,31.0,62,37,13,29.97,29.90,5,0,10,0.00
2013-5-21,70.1,56.4,46.6,51.0,44.5,40.0,83,66,40,29.97,29.88,7,1,14,0.00
2013-5-22,67.8,52.9,43.8,42.0,36.9,30.0,82,58,28,29.99,29.93,7,1,11,0.00
2013-5-23,69.8,53.9,44.6,46.0,42.1,39.0,89,67,39,30.01,29.93,8,0,10,0.00
2013-5-24,75.2,53.6,39.5,49.0,42.9,38.0,97,71,34,30.01,29.96,9,1,13,0.00
2013-5-25,65.9,50.8,44.5,48.0,44.3,42.0,92,80,52,30.03,29.99,6,0,7,0.00
2013-5-26,72.7,64.0,53.7,55.0,51.6,49.0,89,66,48,30.13,30.07,5,1,8,0.02
2013-5-27,67.6,58.2,49.6,56.0,52.2,47.0,94,81,62,30.12,30.00,4,0,9,0.01
2013-5-28,75.2,61.8,51.5,59.0,53.5,48.0,97,77,42,30.00,29.89,4,0,9,0.00
2013-5-29,75.8,59.7,49.2,58.0,50.2,45.0,92,73,42,29.96,29.90,7,1,12,0.00
2013-5-30,81.8,60.3,44.9,48.0,40.6,26.0,97,58,13,29.98,29.92,8,0,14,0.00
2013-5-31,91.8,67.0,45.9,52.0,44.7,40.0,92,54,17,29.99,29.89,8,0,8,0.00
2013-6-1,96.7,72.9,54.2,56.0,49.1,44.0,73,48,18,29.92,29.76,8,1,11,0.00
2013-6-2,73.5,59.3,49.1,57.0,50.9,46.0,96,75,55,29.77,29.70,13,3,16,0.00
2013-6-3,63.9,54.9,49.0,55.0,50.8,48.0,99,87,67,29.88,29.75,13,3,15,0.00
2013-6-4,67.4,55.7,47.3,57.0,51.5,46.0,98,86,67,29.98,29.86,9,2,12,0.00
2013-6-5,71.6,57.3,47.7,58.0,51.7,47.0,98,83,60,29.99,29.93,9,3,13,0.01
2013-6-6,74.5,57.9,49.4,59.0,52.2,49.0,98,83,57,29.96,29.87,10,2,12,0.00
2013-6-7,88.3,63.4,50.0,65.0,55.1,50.0,99,78,43,29.90,29.75,8,1,11,0.00
2013-6-8,73.7,60.1,48.9,60.0,54.6,48.0,98,83,60,29.85,29.74,12,3,16,0.00
2013-6-9,63.1,56.9,53.3,57.0,54.1,52.0,99,91,78,29.89,29.82,11,4,16,0.00
2013-6-10,71.0,58.8,52.6,57.0,52.0,49.0,91,79,59,29.95,29.86,12,3,18,0.00
2013-6-11,80.3,62.0,51.3,60.0,53.8,49.0,93,77,46,29.96,29.89,8,1,10,0.00
2013-6-12,84.1,62.0,47.9,57.0,46.7,39.0,94,63,20,30.01,29.90,7,1,11,0.00
2013-6-13,84.2,61.8,46.1,53.0,46.5,40.0,92,63,29,30.07,29.99,7,0,12,0.00
2013-6-14,89.9,68.3,49.2,51.0,44.3,40.0,86,49,19,29.99,29.82,5,0,8,0.00
2013-6-15,70.7,56.9,44.7,56.0,50.1,43.0,98,79,57,30.01,29.82,9,2,14,0.00
2013-6-16,85.0,62.8,46.0,55.0,48.6,45.0,98,67,25,30.08,30.00,6,1,14,0.00
2013-6-17,79.9,62.7,49.4,57.0,51.4,47.0,91,70,39,30.09,30.02,5,0,12,0.00
2013-6-18,71.3,59.0,51.0,52.0,49.2,47.0,95,73,43,30.03,30.00,4,0,12,0.00
2013-6-19,75.3,60.3,49.4,51.0,47.3,45.0,89,66,37,30.04,30.00,4,1,11,0.00
2013-6-20,82.5,60.9,45.9,52.0,46.0,39.0,95,64,22,30.02,29.95,7,1,10,0.00
2013-6-21,87.2,62.3,46.7,57.0,47.9,42.0,95,65,26,29.99,29.92,8,1,12,0.00
2013-6-22,90.0,64.8,47.7,59.0,49.5,41.0,91,63,26,29.94,29.87,7,1,14,0.00
2013-6-23,69.7,61.4,54.1,60.0,56.8,52.0,95,85,69,29.89,29.82,6,1,7,0.00
2013-6-24,62.5,58.7,57.4,60.0,57.8,57.0,100,97,89,29.93,29.79,7,2,11,0.02
2013-6-25,66.7,60.4,55.7,65.0,60.1,56.0,100,98,94,30.01,29.92,8,2,12,0.03
2013-6-26,88.5,71.0,59.8,68.0,63.2,59.0,100,79,49,30.03,29.96,6,1,11,0.00
2013-6-27,98.0,75.2,58.5,65.0,59.8,56.0,96,65,32,30.03,29.98,4,0,7,0.00
2013-6-28,101.2,81.1,64.8,64.0,55.2,45.0,72,45,20,30.01,29.88,9,1,11,0.00
2013-6-29,105.0,83.7,66.4,61.0,51.6,47.0,66,35,16,29.90,29.78,10,1,11,0.00
2013-6-30,101.5,78.0,60.7,64.0,54.6,49.0,75,49,20,29.82,29.74,7,1,10,0.00
2013-7-1,86.4,73.5,61.4,61.0,56.5,50.0,76,57,38,29.87,29.77,10,2,15,0.00
2013-7-2,88.1,72.6,61.9,62.0,58.2,57.0,83,63,37,29.92,29.82,10,2,18,0.00
2013-7-3,88.5,69.8,58.1,65.0,59.0,55.0,90,71,43,29.91,29.77,11,1,12,0.00
2013-7-4,86.3,69.9,58.6,65.0,59.6,56.0,90,72,49,29.78,29.71,9,2,12,0.00
2013-7-5,75.1,62.5,52.0,58.0,54.4,50.0,94,77,55,29.81,29.74,10,2,13,0.00
2013-7-6,71.7,57.0,51.5,57.0,52.6,50.0,97,86,57,29.82,29.76,8,3,13,0.00
2013-7-7,75.5,59.1,51.1,57.0,52.7,50.0,96,81,51,29.87,29.80,10,3,13,0.00
2013-7-8,80.0,60.3,50.6,58.0,52.2,44.0,98,79,28,29.97,29.87,9,2,13,0.00
2013-7-9,94.1,69.0,51.0,60.0,54.5,49.0,93,66,31,30.00,29.92,9,2,11,0.00
2013-7-10,80.9,62.3,51.8,60.0,55.1,51.0,99,80,50,29.98,29.90,12,3,14,0.00
2013-7-11,74.1,59.5,51.5,58.0,53.6,50.0,99,83,55,29.94,29.89,9,2,14,0.00
2013-7-12,79.4,59.6,50.1,58.0,52.8,50.0,99,81,47,29.94,29.88,10,2,12,0.00
2013-7-13,82.5,62.2,46.3,60.0,53.2,45.0,98,76,44,29.97,29.90,11,2,13,0.01
2013-7-14,80.4,61.7,48.5,60.0,53.3,48.0,99,77,46,29.99,29.90,10,3,13,0.00
2013-7-15,73.3,58.2,50.2,58.0,53.1,50.0,99,85,58,29.93,29.84,9,2,15,0.00
2013-7-16,74.1,60.1,52.9,58.0,54.0,51.0,97,82,55,30.02,29.88,7,2,11,0.00
2013-7-17,81.2,65.5,54.2,60.0,55.4,52.0,92,72,44,30.07,30.01,9,2,13,0.00
2013-7-18,84.2,63.6,47.7,61.0,53.9,47.0,98,74,43,30.04,29.93,10,2,12,0.00
2013-7-19,79.7,61.4,47.6,61.0,53.9,47.0,98,79,50,29.95,29.84,8,2,13,0.01
2013-7-20,75.2,57.9,49.9,60.0,53.0,49.0,98,85,57,29.87,29.78,10,2,13,0.00
2013-7-21,80.9,63.2,49.4,60.0,54.8,49.0,99,77,47,29.89,29.78,13,3,16,0.00
2013-7-22,77.3,64.4,56.6,61.0,57.2,54.0,95,79,56,29.96,29.88,8,2,14,0.00
2013-7-23,82.3,67.7,59.2,61.0,57.2,54.0,90,71,40,29.99,29.94,10,2,13,0.00
2013-7-24,84.2,67.7,55.4,62.0,57.1,53.0,93,72,44,29.97,29.89,9,2,12,0.00
2013-7-25,80.9,63.7,52.1,61.0,55.7,51.0,97,78,49,30.02,29.92,10,2,12,0.00
2013-7-26,79.4,62.2,51.0,62.0,55.3,50.0,99,81,53,30.09,30.01,10,3,14,0.00
2013-7-27,77.0,61.3,52.5,61.0,55.6,52.0,99,84,56,30.03,29.88,9,3,13,0.00
2013-7-28,70.4,58.3,51.8,59.0,54.4,51.0,99,88,66,29.89,29.82,11,3,14,0.00
2013-7-29,70.1,57.7,52.5,57.0,52.8,50.0,94,85,63,30.03,29.88,12,4,13,0.00
2013-7-30,75.1,60.3,51.4,58.0,52.8,50.0,95,79,47,30.10,30.03,11,3,15,0.00
2013-7-31,76.9,61.5,51.0,59.0,52.6,48.0,97,76,41,30.09,30.02,10,2,13,0.00
2013-8-1,84.5,63.7,51.1,56.0,50.6,48.0,92,67,33,30.08,29.97,5,0,8,0.00
2013-8-2,80.3,60.3,46.7,59.0,52.4,46.0,97,78,48,29.98,29.91,8,2,13,0.01
2013-8-3,72.1,57.1,50.5,58.0,53.1,50.0,99,88,59,29.99,29.93,9,2,13,0.00
2013-8-4,74.0,58.8,51.2,59.0,53.7,50.0,99,85,57,30.01,29.95,11,2,13,0.00
2013-8-5,78.8,59.1,48.7,59.0,52.4,48.0,99,81,45,30.02,29.94,9,2,13,0.00
2013-8-6,73.5,59.1,50.2,59.0,53.5,49.0,98,83,58,30.05,29.97,10,2,14,0.00
2013-8-7,75.5,62.4,54.4,58.0,54.8,53.0,96,78,54,30.09,30.02,11,2,13,0.00
2013-8-8,74.1,59.4,52.0,59.0,54.2,50.0,99,84,56,30.04,29.93,9,2,15,0.00
2013-8-9,75.9,61.9,52.0,59.0,54.6,50.0,95,79,55,29.99,29.92,7,1,13,0.00
2013-8-10,82.0,64.7,53.8,62.0,56.3,52.0,96,77,47,30.02,29.96,8,1,11,0.00
2013-8-11,81.0,64.6,52.9,62.0,56.2,52.0,97,77,49,30.01,29.93,10,2,12,0.00
2013-8-12,83.1,63.7,50.9,61.0,55.4,50.0,98,78,45,29.99,29.94,10,2,11,0.01
2013-8-13,88.7,67.8,51.9,59.0,52.5,48.0,95,63,27,29.97,29.91,9,2,14,0.00
2013-8-14,91.6,68.3,53.7,59.0,52.1,46.0,90,62,21,29.96,29.90,6,1,12,0.00
2013-8-15,95.0,72.8,57.4,67.0,61.2,57.0,99,72,34,29.94,29.89,2,0,9,0.01
2013-8-16,95.7,72.7,59.5,65.0,58.8,45.0,96,66,36,29.96,29.91,8,1,11,0.00
2013-8-17,85.2,66.5,55.5,60.0,53.9,44.0,91,66,41,29.97,29.88,6,0,9,0.00
2013-8-18,93.8,68.6,52.2,62.0,56.7,51.0,98,71,25,29.90,29.78,8,2,11,0.00
2013-8-19,88.3,67.1,55.6,61.0,56.9,54.0,94,73,36,29.91,29.80,8,2,14,0.00
2013-8-20,77.0,61.5,53.8,60.0,55.6,52.0,99,83,50,29.91,29.84,11,3,14,0.00
2013-8-21,80.3,62.1,52.8,57.0,54.0,52.0,98,78,40,29.94,29.85,9,2,14,0.00
2013-8-22,80.0,63.5,51.3,59.0,54.3,50.0,98,75,43,29.96,29.87,9,1,13,0.00
2013-8-23,85.9,65.1,52.2,60.0,54.1,51.0,96,72,34,29.92,29.81,8,0,10,0.00
2013-8-24,87.9,67.6,51.8,60.0,56.1,51.0,96,71,36,29.89,29.83,4,0,9,0.00
2013-8-25,79.8,66.3,57.2,64.0,57.9,50.0,98,77,46,29.95,29.88,12,2,15,0.01
2013-8-26,87.2,67.3,56.4,62.0,56.3,49.0,93,71,42,29.98,29.88,5,0,10,0.00
2013-8-27,89.7,66.2,50.3,58.0,52.7,47.0,91,66,34,29.90,29.81,8,1,11,0.00
2013-8-28,88.8,68.8,53.4,64.0,57.3,52.0,96,71,34,29.93,29.84,12,1,13,0.00
2013-8-29,92.2,69.7,54.4,65.0,59.3,54.0,99,74,40,30.02,29.93,8,1,13,0.01
2013-8-30,99.4,73.7,58.1,63.0,57.2,51.0,93,62,24,30.02,29.89,7,1,12,0.00
2013-8-31,91.0,73.1,59.4,58.0,53.4,49.0,73,53,26,29.95,29.86,11,1,14,0.00
2013-9-1,89.5,71.8,60.3,62.0,56.6,53.0,84,61,36,29.91,29.84,10,1,14,0.00
2013-9-2,85.7,70.0,62.3,63.0,60.1,56.0,90,73,45,29.93,29.86,6,0,10,0.01
2013-9-3,86.2,68.2,54.9,59.0,54.0,49.0,93,65,32,29.98,29.91,4,0,8,0.00
2013-9-4,84.7,67.3,55.7,58.0,55.4,53.0,95,70,36,30.01,29.93,7,0,9,0.00
2013-9-5,82.6,66.9,57.5,57.0,55.0,53.0,89,69,38,30.00,29.95,7,1,11,0.00
2013-9-6,94.0,70.9,51.1,56.0,52.2,49.0,94,59,26,29.98,29.81,8,1,11,0.00
2013-9-7,89.9,72.2,60.3,59.0,53.0,47.0,85,54,26,29.86,29.80,9,2,14,0.00
2013-9-8,86.4,66.5,53.9,63.0,56.9,52.0,95,74,44,29.85,29.76,9,2,12,0.00
2013-9-9,87.7,68.4,54.5,62.0,56.9,53.0,94,70,40,29.79,29.72,9,2,11,0.00
2013-9-10,66.0,58.2,53.5,59.0,56.0,53.0,99,92,78,29.92,29.75,10,3,14,0.00
2013-9-11,74.0,62.5,56.7,61.0,57.2,55.0,94,84,62,30.00,29.92,9,2,12,0.00
2013-9-12,83.8,65.9,56.6,63.0,58.1,55.0,94,79,49,29.97,29.87,11,2,12,0.00
2013-9-13,90.4,66.6,53.9,62.0,54.1,37.0,98,71,18,29.90,29.75,7,1,10,0.01
2013-9-14,85.5,63.5,52.1,60.0,54.6,51.0,97,76,36,29.82,29.72,6,0,7,0.00
2013-9-15,86.9,65.8,51.3,60.0,55.5,50.0,99,74,36,29.84,29.78,5,0,8,0.01
2013-9-16,88.1,65.9,53.2,61.0,55.6,52.0,98,74,37,29.87,29.79,6,1,9,0.01
2013-9-17,73.3,61.9,52.2,56.0,53.2,50.0,92,75,46,29.89,29.84,6,1,14,0.00
2013-9-18,88.1,65.9,50.5,53.0,48.8,44.0,95,60,25,29.90,29.79,7,0,9,0.00
2013-9-19,93.3,69.3,52.1,51.0,44.6,38.0,70,46,17,29.82,29.72,8,1,11,0.00
2013-9-20,80.4,64.5,53.0,60.0,53.2,40.0,93,68,48,29.86,29.77,5,1,11,0.00
2013-9-21,62.9,58.4,52.5,61.0,57.1,52.0,99,95,83,29.90,29.81,9,2,19,0.29
2013-9-22,76.6,59.8,49.2,58.0,52.3,49.0,100,80,46,30.00,29.90,4,0,10,0.01
2013-9-23,87.7,66.1,51.0,58.0,53.4,49.0,95,69,29,30.00,29.91,5,0,9,0.00
2013-9-24,76.2,63.5,54.4,57.0,52.7,49.0,88,70,40,29.97,29.91,6,1,14,0.00
2013-9-25,68.6,57.7,50.6,50.0,47.0,43.0,90,70,43,29.92,29.82,7,1,13,0.00
2013-9-26,77.1,59.6,47.6,46.0,41.6,38.0,87,56,26,29.98,29.82,5,1,9,0.00
2013-9-27,84.0,61.7,45.9,47.0,38.4,33.0,80,47,17,30.08,29.98,4,1,12,0.00
2013-9-28,90.5,64.5,47.6,53.0,40.9,36.0,87,48,16,30.07,29.98,6,2,9,0.00
2013-9-29,89.6,65.5,49.9,59.0,53.7,47.0,93,71,32,30.08,30.01,6,1,8,0.00
2013-9-30,83.3,65.3,53.7,61.0,56.9,53.0,97,77,46,30.06,29.95,3,1,7,0.00
2013-10-1,81.8,61.5,50.3,52.0,48.4,43.0,88,65,32,30.00,29.91,8,1,11,0.00
2013-10-2,81.2,59.9,47.5,52.0,46.0,41.0,87,64,26,30.00,29.92,7,1,10,0.00
2013-10-3,75.4,60.6,46.7,43.0,37.4,28.0,83,47,21,30.04,29.93,7,1,10,0.00
2013-10-4,83.7,68.2,56.7,36.0,31.6,28.0,36,27,16,30.08,29.93,4,1,8,0.00
2013-10-5,87.3,68.9,55.5,35.0,30.0,21.0,41,26,10,30.16,30.08,10,1,12,0.00
2013-10-6,85.9,68.7,55.6,40.0,30.2,20.0,42,27,10,30.10,29.99,9,1,12,0.00
2013-10-7,89.0,67.1,55.1,38.0,32.4,28.0,42,29,15,29.99,29.87,7,1,11,0.00
2013-10-8,72.1,56.2,47.2,53.0,42.9,31.0,92,63,43,29.89,29.73,10,2,13,0.00
2013-10-9,69.9,54.6,46.3,49.0,45.2,40.0,95,73,43,29.77,29.62,7,1,12,0.00
2013-10-10,60.5,50.4,42.8,51.0,46.0,39.0,96,85,70,30.02,29.77,8,2,15,0.00
2013-10-11,76.1,55.1,45.3,53.0,46.9,44.0,96,78,37,30.08,29.97,6,1,9,0.00
2013-10-12,77.3,55.6,42.9,51.0,44.4,37.0,95,71,32,29.99,29.89,8,1,11,0.00
2013-10-13,72.3,57.5,46.8,52.0,46.7,41.0,96,71,36,30.05,29.92,8,1,13,0.00
2013-10-14,84.1,63.6,48.8,44.0,40.0,34.0,73,46,23,30.09,29.97,7,0,10,0.00
2013-10-15,85.2,67.2,53.4,38.0,35.4,32.0,52,33,17,30.01,29.92,4,0,8,0.00
2013-10-16,81.3,65.5,53.9,42.0,34.3,28.0,50,33,15,30.06,29.98,11,2,16,0.00
2013-10-17,87.5,66.5,53.3,43.0,34.6,31.0,48,33,14,30.06,29.95,4,0,8,0.00
2013-10-18,85.7,66.0,52.5,42.0,36.0,30.0,53,35,17,30.03,29.96,10,1,11,0.00
2013-10-19,86.1,65.9,54.1,46.0,40.5,32.0,65,43,15,30.04,29.98,8,1,13,0.00
2013-10-20,81.4,62.4,52.6,52.0,45.2,39.0,78,55,35,30.00,29.90,9,1,10,0.00
2013-10-21,82.8,58.8,43.5,51.0,42.7,33.0,89,58,30,29.98,29.90,10,2,12,0.00
2013-10-22,82.3,56.3,42.7,52.0,46.5,41.0,93,73,34,29.99,29.93,12,2,12,0.00
2013-10-23,75.7,53.9,42.6,55.0,47.5,41.0,97,81,46,29.97,29.89,8,2,11,0.00
2013-10-24,66.8,52.1,43.9,52.0,47.2,43.0,98,85,57,30.10,29.96,9,2,13,0.00
2013-10-25,79.2,56.5,41.7,52.0,46.9,41.0,96,75,33,30.15,30.05,7,1,10,0.00
2013-10-26,83.3,61.6,46.8,52.0,46.0,39.0,89,61,21,30.11,30.00,6,1,10,0.00
2013-10-27,66.3,52.6,42.2,52.0,46.1,40.0,95,79,54,30.02,29.72,10,2,15,0.00
2013-10-28,62.8,52.4,48.1,49.0,47.2,45.0,96,83,55,29.87,29.69,14,1,20,0.08
2013-10-29,68.2,52.7,43.8,53.0,47.2,41.0,96,83,51,30.04,29.87,8,1,10,0.00
2013-10-30,69.5,52.4,41.0,50.0,44.5,40.0,98,78,44,30.14,30.05,8,1,9,0.00
2013-10-31,76.9,57.7,44.2,50.0,44.7,42.0,93,66,30,30.17,30.05,5,0,8,0.00
2013-11-1,77.7,60.3,48.5,48.0,42.2,38.0,79,55,25,30.12,30.01,11,2,11,0.00
2013-11-2,78.1,58.9,48.1,51.0,41.9,33.0,88,56,35,30.02,29.91,5,0,10,0.00
2013-11-3,67.9,54.7,45.7,45.0,35.7,24.0,93,54,20,30.01,29.90,2,0,9,0.00
2013-11-4,69.2,54.3,37.6,37.0,32.5,29.0,83,48,23,30.05,29.90,4,0,9,0.00
2013-11-5,77.1,61.9,51.0,36.0,31.4,27.0,53,33,18,30.21,30.05,4,0,8,0.00
2013-11-6,77.6,61.0,49.6,42.0,35.5,29.0,61,42,17,30.23,30.14,7,1,10,0.00
2013-11-7,76.8,61.0,51.5,45.0,37.3,28.0,67,44,17,30.15,30.05,6,1,8,0.00
2013-11-8,79.1,61.4,49.5,49.0,45.7,42.0,79,59,30,30.07,29.94,8,1,10,0.00
2013-11-9,70.3,55.6,48.4,49.0,45.5,35.0,95,72,28,30.05,29.95,12,2,15,0.00
2013-11-10,67.0,52.1,42.8,52.0,46.8,42.0,98,84,45,30.11,30.02,9,2,12,0.00
2013-11-11,70.9,55.1,42.0,50.0,45.5,41.0,98,73,37,30.15,30.07,6,1,9,0.01
2013-11-12,80.2,62.2,52.7,51.0,47.2,42.0,77,60,31,30.23,30.14,4,0,7,0.00
2013-11-13,84.0,63.8,51.9,50.0,46.2,41.0,77,57,23,30.21,30.08,4,0,9,0.00
2013-11-14,76.8,57.1,47.9,54.0,46.0,42.0,82,68,42,30.08,29.88,7,1,9,0.00
2013-11-15,70.6,53.2,40.8,47.0,42.4,37.0,91,71,30,29.88,29.71,5,0,10,0.00
2013-11-16,70.2,51.7,39.6,49.0,44.4,38.0,95,79,42,29.93,29.78,8,1,8,0.00
2013-11-17,69.7,51.8,43.1,50.0,45.2,41.0,96,80,47,30.09,29.93,6,1,10,0.00
2013-11-18,64.5,48.8,38.6,48.0,42.9,37.0,96,82,50,30.15,30.08,6,1,8,0.00
2013-11-19,59.7,51.0,44.4,54.0,48.5,42.0,97,91,76,30.12,29.97,6,2,9,0.21
2013-11-20,56.6,53.2,48.7,56.0,52.7,48.0,98,98,97,29.97,29.84,7,2,12,0.30
2013-11-21,60.8,51.6,47.9,55.0,42.6,30.0,99,75,44,29.95,29.88,6,1,10,0.00
2013-11-22,68.0,52.3,41.3,36.0,29.8,23.0,73,45,20,30.01,29.91,4,1,9,0.00
2013-11-23,68.8,49.3,38.6,49.0,40.4,32.0,95,73,44,30.11,29.96,8,2,10,0.00
2013-11-24,67.5,50.3,38.8,46.0,41.0,37.0,95,74,42,30.25,30.11,6,0,8,0.01
2013-11-25,73.3,53.1,41.8,46.0,41.5,38.0,89,68,35,30.31,30.23,7,0,8,0.00
2013-11-26,69.4,55.0,45.6,47.0,41.6,36.0,79,62,39,30.24,30.01,6,0,8,0.00
2013-11-27,65.6,53.9,45.5,47.0,42.2,40.0,85,66,42,30.01,29.83,8,1,14,0.00
2013-11-28,69.0,55.1,45.6,47.0,42.7,40.0,84,65,35,30.07,29.84,7,1,8,0.00
2013-11-29,77.9,56.5,44.7,47.0,40.9,38.0,82,59,26,30.21,30.07,5,0,7,0.00
2013-11-30,75.7,56.0,43.9,44.0,39.6,35.0,77,57,26,30.24,30.17,2,0,6,0.00
2013-12-1,78.5,59.5,48.1,48.0,41.4,39.0,73,54,24,30.30,30.19,2,0,6,0.00
2013-12-2,74.0,56.3,47.9,49.0,45.2,41.0,93,69,36,30.22,29.97,7,0,9,0.00
2013-12-3,53.5,47.4,39.6,50.0,40.5,27.0,97,78,51,29.97,29.83,4,0,11,0.00
2013-12-4,55.1,42.2,31.6,31.0,26.7,21.0,84,57,30,30.07,29.92,5,0,9,0.00
2013-12-5,58.6,38.9,27.1,29.0,24.2,15.0,86,59,23,30.18,30.07,5,0,6,0.00
2013-12-6,50.0,40.1,28.7,46.0,34.0,24.0,96,80,52,30.21,29.96,10,2,29,0.59
2013-12-7,48.6,40.6,30.7,46.0,35.5,29.0,98,83,51,30.23,29.93,10,0,16,0.48
2013-12-8,50.3,35.6,28.2,35.0,26.6,19.0,97,73,36,30.30,30.19,4,0,8,0.01
2013-12-9,56.2,40.1,29.3,27.0,20.4,12.0,78,48,26,30.39,30.29,4,0,10,0.00
2013-12-10,63.3,44.2,31.4,31.0,25.1,20.0,77,51,20,30.38,30.17,6,1,10,0.00
2013-12-11,65.2,48.5,38.5,35.0,26.0,19.0,64,45,18,30.19,30.13,8,1,9,0.00
2013-12-12,68.3,47.3,35.4,38.0,30.2,25.0,83,55,24,30.23,30.14,9,2,11,0.00
2013-12-13,69.6,47.4,34.8,44.0,34.6,30.0,94,65,32,30.30,30.21,3,1,5,0.00
2013-12-14,68.4,52.5,39.6,41.0,36.2,31.0,75,56,33,30.34,30.27,8,1,8,0.00
2013-12-15,73.4,56.5,44.6,42.0,34.5,28.0,67,45,23,30.33,30.20,5,0,8,0.00
2013-12-16,77.3,61.5,52.3,45.0,31.3,25.0,45,33,18,30.19,30.07,5,1,10,0.00
2013-12-17,77.4,61.7,53.5,50.0,35.8,28.0,52,39,25,30.13,29.98,4,0,6,0.00
2013-12-18,63.0,52.4,47.6,48.0,42.3,35.0,93,70,50,29.98,29.78,7,1,12,0.00
2013-12-19,60.2,49.3,41.8,44.0,36.8,24.0,90,65,38,29.91,29.72,8,1,15,0.00
2013-12-20,65.6,51.0,41.6,27.0,16.8,8.0,47,28,11,30.00,29.91,5,0,7,0.00
2013-12-21,72.8,53.6,41.2,49.0,41.0,22.0,87,65,37,30.06,29.95,3,0,6,0.00
2013-12-22,71.6,53.5,45.1,48.0,41.7,37.0,88,67,30,30.28,30.06,6,1,8,0.00
2013-12-23,72.9,52.5,39.6,48.0,41.1,37.0,91,69,32,30.37,30.27,6,1,9,0.00
2013-12-24,77.5,56.9,41.5,48.0,38.0,28.0,81,53,29,30.31,30.17,5,1,6,0.00
2013-12-25,74.4,58.2,48.2,43.0,35.3,29.0,61,44,23,30.23,30.15,9,1,10,0.00
2013-12-26,79.8,60.0,48.2,44.0,32.9,26.0,57,39,14,30.21,30.11,5,0,7,0.00
2013-12-27,76.7,58.7,50.2,50.0,34.1,26.0,56,40,22,30.18,30.08,2,0,5,0.00
2013-12-28,72.0,57.6,46.8,32.0,26.7,22.0,46,32,19,30.09,30.00,4,0,8,0.00
2013-12-29,73.2,58.4,47.7,33.0,26.6,19.0,48,31,17,30.15,30.04,7,1,9,0.00
2013-12-30,66.3,52.7,44.7,36.0,28.7,25.0,54,41,23,30.24,30.15,9,1,11,0.00
2013-12-31,70.2,52.3,42.7,44.0,30.5,20.0,74,46,17,30.25,30.11,8,1,9,0.00
2014-1-1,71.3,55.5,43.6,38.0,30.9,22.0,74,41,21,30.19,30.09,2,0,5,0.00
2014-1-2,75.3,59.2,49.4,43.0,36.9,30.0,57,45,27,30.12,30.01,5,0,8,0.00